sensor_id;sensor_type;location;lat;lon;timestamp;temperature;humidity
11549;DHT22;61444;59.472;18.306;2023-03-01T00:01:08;1.60;99.90
11549;DHT22;61444;59.472;18.306;2023-03-01T00:03:21;1.50;99.90
11549;DHT22;61444;59.472;18.306;2023-03-01T00:05:35;1.40;99.90
11549;DHT22;61444;59.472;18.306;2023-03-01T00:07:46;1.30;99.90
11549;DHT22;61444;59.472;18.306;2023-03-01T00:10:04;1.30;99.90
11549;DHT22;61444;59.472;18.306;2023-03-01T00:12:19;1.40;99.90
11549;DHT22;61444;59.472;18.306;2023-03-01T00:14:35;1.30;99.90
11549;DHT22;61444;59.472;18.306;2023-03-01T00:16:45;1.10;99.90
11549;DHT22;61444;59.472;18.306;2023-03-01T00:18:56;1.00;99.90
11549;DHT22;61444;59.472;18.306;2023-03-01T00:21:07;0.90;99.90
11549;DHT22;61444;59.472;18.306;2023-03-01T00:23:17;0.80;99.90
11549;DHT22;61444;59.472;18.306;2023-03-01T00:25:26;0.90;99.90
11549;DHT22;61444;59.472;18.306;2023-03-01T00:27:35;0.90;99.90
11549;DHT22;61444;59.472;18.306;2023-03-01T00:29:44;0.90;99.90
11549;DHT22;61444;59.472;18.306;2023-03-01T00:31:52;1.00;99.90
11549;DHT22;61444;59.472;18.306;2023-03-01T00:34:02;0.90;99.90
11549;DHT22;61444;59.472;18.306;2023-03-01T00:36:30;0.90;99.90
11549;DHT22;61444;59.472;18.306;2023-03-01T00:38:43;0.90;99.90
11549;DHT22;61444;59.472;18.306;2023-03-01T00:40:53;0.80;99.90
11549;DHT22;61444;59.472;18.306;2023-03-01T00:43:02;0.60;99.90
11549;DHT22;61444;59.472;18.306;2023-03-01T00:45:11;0.80;99.90
11549;DHT22;61444;59.472;18.306;2023-03-01T00:47:20;1.00;99.90
11549;DHT22;61444;59.472;18.306;2023-03-01T00:49:29;1.00;99.90
11549;DHT22;61444;59.472;18.306;2023-03-01T00:51:38;0.90;99.90
11549;DHT22;61444;59.472;18.306;2023-03-01T00:53:52;0.90;99.90
11549;DHT22;61444;59.472;18.306;2023-03-01T00:56:02;1.00;99.90
11549;DHT22;61444;59.472;18.306;2023-03-01T00:58:11;1.00;99.90
11549;DHT22;61444;59.472;18.306;2023-03-01T01:00:20;1.10;99.90
11549;DHT22;61444;59.472;18.306;2023-03-01T01:02:34;1.20;99.90
11549;DHT22;61444;59.472;18.306;2023-03-01T01:04:42;1.20;99.90
11549;DHT22;61444;59.472;18.306;2023-03-01T01:06:54;1.10;99.90
11549;DHT22;61444;59.472;18.306;2023-03-01T01:09:06;1.20;99.90
11549;DHT22;61444;59.472;18.306;2023-03-01T01:11:28;1.10;99.90
11549;DHT22;61444;59.472;18.306;2023-03-01T01:13:37;1.10;99.90
11549;DHT22;61444;59.472;18.306;2023-03-01T01:15:46;1.00;99.90
11549;DHT22;61444;59.472;18.306;2023-03-01T01:17:55;0.90;99.90
11549;DHT22;61444;59.472;18.306;2023-03-01T01:20:04;0.90;99.90
11549;DHT22;61444;59.472;18.306;2023-03-01T01:22:14;0.80;99.90
11549;DHT22;61444;59.472;18.306;2023-03-01T01:24:26;0.90;99.90
11549;DHT22;61444;59.472;18.306;2023-03-01T01:26:35;0.90;99.90
11549;DHT22;61444;59.472;18.306;2023-03-01T01:28:44;0.80;99.90
11549;DHT22;61444;59.472;18.306;2023-03-01T01:30:53;0.80;99.90
11549;DHT22;61444;59.472;18.306;2023-03-01T01:33:02;0.90;99.90
11549;DHT22;61444;59.472;18.306;2023-03-01T01:35:11;0.90;99.90
11549;DHT22;61444;59.472;18.306;2023-03-01T01:37:20;1.00;99.90
11549;DHT22;61444;59.472;18.306;2023-03-01T01:39:30;1.00;99.90
11549;DHT22;61444;59.472;18.306;2023-03-01T01:41:40;0.90;99.90
11549;DHT22;61444;59.472;18.306;2023-03-01T01:44:12;0.90;99.90
11549;DHT22;61444;59.472;18.306;2023-03-01T01:46:26;0.90;99.90
11549;DHT22;61444;59.472;18.306;2023-03-01T01:48:42;0.80;99.90
11549;DHT22;61444;59.472;18.306;2023-03-01T01:50:55;0.80;99.90
11549;DHT22;61444;59.472;18.306;2023-03-01T01:53:09;0.80;99.90
11549;DHT22;61444;59.472;18.306;2023-03-01T01:55:26;0.70;99.90
11549;DHT22;61444;59.472;18.306;2023-03-01T01:57:43;0.70;99.90
11549;DHT22;61444;59.472;18.306;2023-03-01T01:59:56;0.70;99.90
11549;DHT22;61444;59.472;18.306;2023-03-01T02:02:10;0.70;99.90
11549;DHT22;61444;59.472;18.306;2023-03-01T02:04:21;0.70;99.90
11549;DHT22;61444;59.472;18.306;2023-03-01T02:06:32;0.60;99.90
11549;DHT22;61444;59.472;18.306;2023-03-01T02:08:42;0.70;99.90
11549;DHT22;61444;59.472;18.306;2023-03-01T02:10:54;0.60;99.90
11549;DHT22;61444;59.472;18.306;2023-03-01T02:13:04;0.60;99.90
11549;DHT22;61444;59.472;18.306;2023-03-01T02:15:13;0.60;99.90
11549;DHT22;61444;59.472;18.306;2023-03-01T02:17:24;0.60;99.90
11549;DHT22;61444;59.472;18.306;2023-03-01T02:19:45;0.60;99.90
11549;DHT22;61444;59.472;18.306;2023-03-01T02:22:05;0.60;99.90
11549;DHT22;61444;59.472;18.306;2023-03-01T02:24:24;0.40;99.90
11549;DHT22;61444;59.472;18.306;2023-03-01T02:26:40;0.30;99.90
11549;DHT22;61444;59.472;18.306;2023-03-01T02:28:50;0.30;99.90
11549;DHT22;61444;59.472;18.306;2023-03-01T02:30:59;0.30;99.90
11549;DHT22;61444;59.472;18.306;2023-03-01T02:33:26;0.20;99.90
11549;DHT22;61444;59.472;18.306;2023-03-01T02:35:37;0.10;99.90
11549;DHT22;61444;59.472;18.306;2023-03-01T02:37:48;-0.20;99.90
11549;DHT22;61444;59.472;18.306;2023-03-01T02:40:01;-0.20;99.90
11549;DHT22;61444;59.472;18.306;2023-03-01T02:42:14;-0.20;99.90
11549;DHT22;61444;59.472;18.306;2023-03-01T02:44:25;-0.30;99.90
11549;DHT22;61444;59.472;18.306;2023-03-01T02:46:33;-0.40;99.90
11549;DHT22;61444;59.472;18.306;2023-03-01T02:48:44;-0.50;99.90
11549;DHT22;61444;59.472;18.306;2023-03-01T02:51:03;-0.50;99.90
11549;DHT22;61444;59.472;18.306;2023-03-01T02:53:19;-0.50;99.90
11549;DHT22;61444;59.472;18.306;2023-03-01T02:55:32;-0.40;99.90
11549;DHT22;61444;59.472;18.306;2023-03-01T02:57:43;-0.50;99.90
11549;DHT22;61444;59.472;18.306;2023-03-01T02:59:55;-0.60;99.90
11549;DHT22;61444;59.472;18.306;2023-03-01T03:02:05;-0.60;99.90
11549;DHT22;61444;59.472;18.306;2023-03-01T03:04:15;-0.60;99.90
11549;DHT22;61444;59.472;18.306;2023-03-01T03:06:25;-0.60;99.90
11549;DHT22;61444;59.472;18.306;2023-03-01T03:08:35;-0.50;99.90
11549;DHT22;61444;59.472;18.306;2023-03-01T03:10:43;-0.60;99.90
11549;DHT22;61444;59.472;18.306;2023-03-01T03:12:53;-0.60;99.90
11549;DHT22;61444;59.472;18.306;2023-03-01T03:15:05;-0.60;99.90
11549;DHT22;61444;59.472;18.306;2023-03-01T03:17:15;-0.60;99.90
11549;DHT22;61444;59.472;18.306;2023-03-01T03:19:24;-0.60;99.90
11549;DHT22;61444;59.472;18.306;2023-03-01T03:21:33;-0.60;99.90
11549;DHT22;61444;59.472;18.306;2023-03-01T03:23:42;-0.60;99.90
11549;DHT22;61444;59.472;18.306;2023-03-01T03:25:51;-0.50;99.90
11549;DHT22;61444;59.472;18.306;2023-03-01T03:28:00;-0.50;99.90
11549;DHT22;61444;59.472;18.306;2023-03-01T03:30:14;-0.50;99.90
11549;DHT22;61444;59.472;18.306;2023-03-01T03:32:23;-0.50;99.90
11549;DHT22;61444;59.472;18.306;2023-03-01T03:34:32;-0.40;99.90
11549;DHT22;61444;59.472;18.306;2023-03-01T03:36:41;-0.50;99.90
11549;DHT22;61444;59.472;18.306;2023-03-01T03:38:50;-0.50;99.90
11549;DHT22;61444;59.472;18.306;2023-03-01T03:41:01;-0.40;99.90
11549;DHT22;61444;59.472;18.306;2023-03-01T03:43:12;-0.40;99.90
11549;DHT22;61444;59.472;18.306;2023-03-01T03:45:23;-0.30;99.90
11549;DHT22;61444;59.472;18.306;2023-03-01T03:47:31;-0.20;99.90
11549;DHT22;61444;59.472;18.306;2023-03-01T03:49:40;-0.20;99.90
11549;DHT22;61444;59.472;18.306;2023-03-01T03:51:48;-0.20;99.90
11549;DHT22;61444;59.472;18.306;2023-03-01T03:53:56;-0.30;99.90
11549;DHT22;61444;59.472;18.306;2023-03-01T03:56:06;-0.30;99.90
11549;DHT22;61444;59.472;18.306;2023-03-01T03:58:15;-0.30;99.90
11549;DHT22;61444;59.472;18.306;2023-03-01T04:00:28;-0.40;99.90
11549;DHT22;61444;59.472;18.306;2023-03-01T04:02:37;-0.60;99.90
11549;DHT22;61444;59.472;18.306;2023-03-01T04:04:46;-0.60;99.90
11549;DHT22;61444;59.472;18.306;2023-03-01T04:06:56;-0.60;99.90
11549;DHT22;61444;59.472;18.306;2023-03-01T04:09:05;-0.50;99.90
11549;DHT22;61444;59.472;18.306;2023-03-01T04:11:13;-0.50;99.90
11549;DHT22;61444;59.472;18.306;2023-03-01T04:13:36;-0.50;99.90
11549;DHT22;61444;59.472;18.306;2023-03-01T04:15:47;-0.50;99.90
11549;DHT22;61444;59.472;18.306;2023-03-01T04:17:56;-0.50;99.90
11549;DHT22;61444;59.472;18.306;2023-03-01T04:20:07;-0.50;99.90
11549;DHT22;61444;59.472;18.306;2023-03-01T04:22:17;-0.60;99.90
11549;DHT22;61444;59.472;18.306;2023-03-01T04:24:25;-0.70;99.90
11549;DHT22;61444;59.472;18.306;2023-03-01T04:26:34;-0.70;99.90
11549;DHT22;61444;59.472;18.306;2023-03-01T04:28:42;-0.70;99.90
11549;DHT22;61444;59.472;18.306;2023-03-01T04:30:55;-0.70;99.90
11549;DHT22;61444;59.472;18.306;2023-03-01T04:33:05;-0.70;99.90
11549;DHT22;61444;59.472;18.306;2023-03-01T04:35:13;-0.80;99.90
11549;DHT22;61444;59.472;18.306;2023-03-01T04:37:22;-0.80;99.90
11549;DHT22;61444;59.472;18.306;2023-03-01T04:39:31;-0.90;99.90
11549;DHT22;61444;59.472;18.306;2023-03-01T04:41:40;-0.90;99.90
11549;DHT22;61444;59.472;18.306;2023-03-01T04:43:52;-1.10;99.90
11549;DHT22;61444;59.472;18.306;2023-03-01T04:46:03;-1.20;99.90
11549;DHT22;61444;59.472;18.306;2023-03-01T04:48:13;-1.30;99.90
11549;DHT22;61444;59.472;18.306;2023-03-01T04:50:21;-1.30;99.90
11549;DHT22;61444;59.472;18.306;2023-03-01T04:52:30;-1.20;99.90
11549;DHT22;61444;59.472;18.306;2023-03-01T04:54:39;-1.20;99.90
11549;DHT22;61444;59.472;18.306;2023-03-01T04:56:48;-1.10;99.90
11549;DHT22;61444;59.472;18.306;2023-03-01T04:58:57;-1.10;99.90
11549;DHT22;61444;59.472;18.306;2023-03-01T05:01:13;-1.10;99.90
11549;DHT22;61444;59.472;18.306;2023-03-01T05:03:23;-1.10;99.90
11549;DHT22;61444;59.472;18.306;2023-03-01T05:05:34;-1.10;99.90
11549;DHT22;61444;59.472;18.306;2023-03-01T05:07:43;-1.10;99.90
11549;DHT22;61444;59.472;18.306;2023-03-01T05:09:52;-1.10;99.90
11549;DHT22;61444;59.472;18.306;2023-03-01T05:12:01;-1.20;99.90
11549;DHT22;61444;59.472;18.306;2023-03-01T05:14:11;-1.20;99.90
11549;DHT22;61444;59.472;18.306;2023-03-01T05:16:22;-1.30;99.90
11549;DHT22;61444;59.472;18.306;2023-03-01T05:18:32;-1.40;99.90
11549;DHT22;61444;59.472;18.306;2023-03-01T05:20:41;-1.40;99.90
11549;DHT22;61444;59.472;18.306;2023-03-01T05:22:56;-1.40;99.90
11549;DHT22;61444;59.472;18.306;2023-03-01T05:25:06;-1.40;99.90
11549;DHT22;61444;59.472;18.306;2023-03-01T05:27:15;-1.30;99.90
11549;DHT22;61444;59.472;18.306;2023-03-01T05:29:25;-1.30;99.90
11549;DHT22;61444;59.472;18.306;2023-03-01T05:31:35;-1.30;99.90
11549;DHT22;61444;59.472;18.306;2023-03-01T05:33:45;-1.20;99.90
11549;DHT22;61444;59.472;18.306;2023-03-01T05:35:54;-1.20;99.90
11549;DHT22;61444;59.472;18.306;2023-03-01T05:38:02;-1.30;99.90
11549;DHT22;61444;59.472;18.306;2023-03-01T05:40:13;-1.40;99.90
11549;DHT22;61444;59.472;18.306;2023-03-01T05:42:24;-1.50;99.90
11549;DHT22;61444;59.472;18.306;2023-03-01T05:44:32;-1.50;99.90
11549;DHT22;61444;59.472;18.306;2023-03-01T05:46:43;-1.50;99.90
11549;DHT22;61444;59.472;18.306;2023-03-01T05:48:52;-1.60;99.90
11549;DHT22;61444;59.472;18.306;2023-03-01T05:51:01;-1.60;99.90
11549;DHT22;61444;59.472;18.306;2023-03-01T05:53:11;-1.50;99.90
11549;DHT22;61444;59.472;18.306;2023-03-01T05:55:21;-1.50;99.90
11549;DHT22;61444;59.472;18.306;2023-03-01T05:57:30;-1.50;99.90
11549;DHT22;61444;59.472;18.306;2023-03-01T05:59:38;-1.50;99.90
11549;DHT22;61444;59.472;18.306;2023-03-01T06:01:49;-1.50;99.90
11549;DHT22;61444;59.472;18.306;2023-03-01T06:03:57;-1.50;99.90
11549;DHT22;61444;59.472;18.306;2023-03-01T06:06:06;-1.40;99.90
11549;DHT22;61444;59.472;18.306;2023-03-01T06:08:14;-1.30;99.90
11549;DHT22;61444;59.472;18.306;2023-03-01T06:10:24;-1.30;99.90
11549;DHT22;61444;59.472;18.306;2023-03-01T06:12:33;-1.20;99.90
11549;DHT22;61444;59.472;18.306;2023-03-01T06:14:42;-1.20;99.90
11549;DHT22;61444;59.472;18.306;2023-03-01T06:16:54;-1.10;99.90
11549;DHT22;61444;59.472;18.306;2023-03-01T06:19:02;-1.10;99.90
11549;DHT22;61444;59.472;18.306;2023-03-01T06:21:11;-1.00;99.90
11549;DHT22;61444;59.472;18.306;2023-03-01T06:23:20;-1.10;99.90
11549;DHT22;61444;59.472;18.306;2023-03-01T06:25:29;-1.10;99.90
11549;DHT22;61444;59.472;18.306;2023-03-01T06:27:38;-1.10;99.90
11549;DHT22;61444;59.472;18.306;2023-03-01T06:29:47;-1.00;99.90
11549;DHT22;61444;59.472;18.306;2023-03-01T06:31:57;-1.10;99.90
11549;DHT22;61444;59.472;18.306;2023-03-01T06:34:06;-1.10;99.90
11549;DHT22;61444;59.472;18.306;2023-03-01T06:36:15;-1.10;99.90
11549;DHT22;61444;59.472;18.306;2023-03-01T06:38:25;-1.00;99.90
11549;DHT22;61444;59.472;18.306;2023-03-01T06:40:34;-0.90;99.90
11549;DHT22;61444;59.472;18.306;2023-03-01T06:42:48;-0.90;99.90
11549;DHT22;61444;59.472;18.306;2023-03-01T06:44:57;-0.90;99.90
11549;DHT22;61444;59.472;18.306;2023-03-01T06:47:07;-0.90;99.90
11549;DHT22;61444;59.472;18.306;2023-03-01T06:49:16;-0.80;99.90
11549;DHT22;61444;59.472;18.306;2023-03-01T06:51:25;-0.80;99.90
11549;DHT22;61444;59.472;18.306;2023-03-01T06:53:34;-0.80;99.90
11549;DHT22;61444;59.472;18.306;2023-03-01T06:55:42;-0.70;99.90
11549;DHT22;61444;59.472;18.306;2023-03-01T06:57:54;-0.60;99.90
11549;DHT22;61444;59.472;18.306;2023-03-01T07:00:04;-0.60;99.90
11549;DHT22;61444;59.472;18.306;2023-03-01T07:02:15;-0.50;99.90
11549;DHT22;61444;59.472;18.306;2023-03-01T07:04:24;-0.50;99.90
11549;DHT22;61444;59.472;18.306;2023-03-01T07:06:35;-0.40;99.90
11549;DHT22;61444;59.472;18.306;2023-03-01T07:08:44;-0.50;99.90
11549;DHT22;61444;59.472;18.306;2023-03-01T07:10:55;-0.50;99.90
11549;DHT22;61444;59.472;18.306;2023-03-01T07:13:04;-0.40;99.90
11549;DHT22;61444;59.472;18.306;2023-03-01T07:15:14;-0.40;99.90
11549;DHT22;61444;59.472;18.306;2023-03-01T07:17:24;-0.20;99.90
11549;DHT22;61444;59.472;18.306;2023-03-01T07:19:33;-0.20;99.90
11549;DHT22;61444;59.472;18.306;2023-03-01T07:21:42;-0.10;99.90
11549;DHT22;61444;59.472;18.306;2023-03-01T07:23:50;0.00;99.90
11549;DHT22;61444;59.472;18.306;2023-03-01T07:25:59;0.00;99.90
11549;DHT22;61444;59.472;18.306;2023-03-01T07:28:08;0.10;99.90
11549;DHT22;61444;59.472;18.306;2023-03-01T07:30:17;0.10;99.90
11549;DHT22;61444;59.472;18.306;2023-03-01T07:32:27;0.20;99.90
11549;DHT22;61444;59.472;18.306;2023-03-01T07:34:36;0.20;99.90
11549;DHT22;61444;59.472;18.306;2023-03-01T07:36:45;0.30;99.90
11549;DHT22;61444;59.472;18.306;2023-03-01T07:38:54;0.30;99.90
11549;DHT22;61444;59.472;18.306;2023-03-01T07:41:04;0.40;99.90
11549;DHT22;61444;59.472;18.306;2023-03-01T07:43:13;0.40;99.90
11549;DHT22;61444;59.472;18.306;2023-03-01T07:45:22;0.50;99.90
11549;DHT22;61444;59.472;18.306;2023-03-01T07:47:33;0.60;99.90
11549;DHT22;61444;59.472;18.306;2023-03-01T07:49:42;0.60;99.90
11549;DHT22;61444;59.472;18.306;2023-03-01T07:51:50;0.70;99.90
11549;DHT22;61444;59.472;18.306;2023-03-01T07:54:00;0.80;99.90
11549;DHT22;61444;59.472;18.306;2023-03-01T07:56:10;0.80;99.90
11549;DHT22;61444;59.472;18.306;2023-03-01T07:58:18;0.90;99.90
11549;DHT22;61444;59.472;18.306;2023-03-01T08:00:27;1.00;99.90
11549;DHT22;61444;59.472;18.306;2023-03-01T08:02:37;1.10;99.90
11549;DHT22;61444;59.472;18.306;2023-03-01T08:04:49;1.10;99.90
11549;DHT22;61444;59.472;18.306;2023-03-01T08:06:58;1.20;99.90
11549;DHT22;61444;59.472;18.306;2023-03-01T08:09:06;1.30;99.90
11549;DHT22;61444;59.472;18.306;2023-03-01T08:11:16;1.40;99.90
11549;DHT22;61444;59.472;18.306;2023-03-01T08:13:25;1.50;99.90
11549;DHT22;61444;59.472;18.306;2023-03-01T08:15:33;1.50;99.90
11549;DHT22;61444;59.472;18.306;2023-03-01T08:17:44;1.70;99.90
11549;DHT22;61444;59.472;18.306;2023-03-01T08:19:52;1.70;99.90
11549;DHT22;61444;59.472;18.306;2023-03-01T08:22:02;1.80;99.90
11549;DHT22;61444;59.472;18.306;2023-03-01T08:24:11;1.90;99.90
11549;DHT22;61444;59.472;18.306;2023-03-01T08:26:21;2.00;99.90
11549;DHT22;61444;59.472;18.306;2023-03-01T08:28:29;2.10;99.90
11549;DHT22;61444;59.472;18.306;2023-03-01T08:30:37;2.20;99.90
11549;DHT22;61444;59.472;18.306;2023-03-01T08:32:48;2.20;99.90
11549;DHT22;61444;59.472;18.306;2023-03-01T08:34:57;2.30;99.90
11549;DHT22;61444;59.472;18.306;2023-03-01T08:37:06;2.30;99.90
11549;DHT22;61444;59.472;18.306;2023-03-01T08:39:17;2.40;99.90
11549;DHT22;61444;59.472;18.306;2023-03-01T08:41:26;2.50;99.90
11549;DHT22;61444;59.472;18.306;2023-03-01T08:43:35;2.60;99.90
11549;DHT22;61444;59.472;18.306;2023-03-01T08:45:44;2.60;99.90
11549;DHT22;61444;59.472;18.306;2023-03-01T08:47:54;2.70;99.90
11549;DHT22;61444;59.472;18.306;2023-03-01T08:50:03;2.80;99.90
11549;DHT22;61444;59.472;18.306;2023-03-01T08:52:12;2.80;99.90
11549;DHT22;61444;59.472;18.306;2023-03-01T08:54:21;2.90;99.90
11549;DHT22;61444;59.472;18.306;2023-03-01T08:56:30;2.90;99.90
11549;DHT22;61444;59.472;18.306;2023-03-01T08:58:39;3.00;99.90
11549;DHT22;61444;59.472;18.306;2023-03-01T09:00:48;3.10;99.90
11549;DHT22;61444;59.472;18.306;2023-03-01T09:02:58;3.20;99.90
11549;DHT22;61444;59.472;18.306;2023-03-01T09:05:07;3.30;99.90
11549;DHT22;61444;59.472;18.306;2023-03-01T09:07:15;3.30;99.90
11549;DHT22;61444;59.472;18.306;2023-03-01T09:09:25;3.30;99.90
11549;DHT22;61444;59.472;18.306;2023-03-01T09:11:33;3.40;99.90
11549;DHT22;61444;59.472;18.306;2023-03-01T09:13:42;3.60;99.90
11549;DHT22;61444;59.472;18.306;2023-03-01T09:15:51;3.70;99.90
11549;DHT22;61444;59.472;18.306;2023-03-01T09:18:02;3.80;99.90
11549;DHT22;61444;59.472;18.306;2023-03-01T09:20:11;3.90;99.90
11549;DHT22;61444;59.472;18.306;2023-03-01T09:22:20;4.00;99.90
11549;DHT22;61444;59.472;18.306;2023-03-01T09:24:29;4.00;99.90
11549;DHT22;61444;59.472;18.306;2023-03-01T09:26:38;4.20;99.90
11549;DHT22;61444;59.472;18.306;2023-03-01T09:28:47;4.20;99.90
11549;DHT22;61444;59.472;18.306;2023-03-01T09:30:58;4.30;99.90
11549;DHT22;61444;59.472;18.306;2023-03-01T09:33:09;4.50;99.90
11549;DHT22;61444;59.472;18.306;2023-03-01T09:35:21;4.50;99.90
11549;DHT22;61444;59.472;18.306;2023-03-01T09:37:31;4.50;99.90
11549;DHT22;61444;59.472;18.306;2023-03-01T09:39:40;4.60;99.90
